Terminal Aerodrome Forecast
Issued by NWS

Home | Current Version | Previous Version | Text Only | Print | Product List | Glossary Off
Versions: 1 2 3 4 5 6 7 8 9 10 11 12 13 14 15

000
FTUS42 KMHX 240538
TAFOAJ
TAF
KOAJ 240538Z 2406/2506 21011G20KT P6SM SCT015
     FM241500 23013G20KT P6SM SCT040
     FM241900 22010G18KT P6SM VCSH BKN040
     FM250000 21006KT 4SM SHRA VCTS SCT025CB OVC050
      AMD LTD TO CLD VIS AND WIND=

USA.gov is the U.S. government's official web portal to all federal, state and local government web resources and services.